Flight Track Log - Related Links

Times and Time Zones

All times are in EDT time to prevent confusion due to time zone crossing. See the UAL4335 flight status page for this flight to view local times or setup timezone preferences in your user account.

Time Position Orientation Groundspeed Altitude Reporting Facility
EDT Latitude Longitude Course Direction KTS MPH feet Rate Location/Type
Tue 03:05:26 PM 40.7500 -74.1333 258° West 212 244 2,900  Level New York TRACON
Tue 03:06:26 PM 40.7667 -74.2167 285° West 270 311 5,600 2,750 Climbing New York TRACON
Tue 03:07:00 PM 40.6834 -74.6654 270° West  Level FlightAware Approximate
Tue 03:07:26 PM 40.7667 -74.3000 270° West 276 318 8,400  Level New York TRACON
Tue 03:08:00 PM 40.6834 -74.7900 270° West  Level FlightAware Approximate
Tue 03:08:27 PM 40.7500 -74.4167 259° West 288 331 10,300  Level New York TRACON
Tue 03:09:00 PM 40.6833 -74.9147 270° West  Level FlightAware Approximate
Tue 03:10:00 PM 40.6715 -75.0377 258° West  Level FlightAware Approximate
Tue 03:10:28 PM 40.7294 -74.6433 263° West 344 396 12,700  Level New York Center
Tue 03:11:29 PM 40.7142 -74.7847 262° West 355 409 14,500 1,672 Climbing New York Center
Tue 03:12:30 PM 40.6917 -74.8983 255° West 355 409 16,100 1,576 Climbing New York Center
Tue 03:13:27 PM 40.6481 -75.0078 242° Southwest 355 409 17,600 1,475 Climbing New York Center
Tue 03:14:28 PM 40.5956 -75.1358 242° Southwest 355 409 19,000 1,279 Climbing New York Center
Tue 03:15:29 PM 40.5539 -75.2425 243° Southwest 366 421 20,200 1,300 Climbing New York Center
Tue 03:16:28 PM 40.5078 -75.3622 243° Southwest 366 421 21,600 1,361 Climbing New York Center
Tue 03:17:28 PM 40.4572 -75.4817 241° Southwest 366 421 22,900 1,289 Climbing New York Center
Tue 03:18:29 PM 40.4083 -75.6036 242° Southwest 366 421 24,200 1,388 Climbing New York Center
Tue 03:19:29 PM 40.3528 -75.7386 242° Southwest 381 438 25,700 1,311 Climbing New York Center
Tue 03:20:28 PM 40.3039 -75.8603 242° Southwest 381 438 26,800 1,050 Climbing New York Center
Tue 03:21:29 PM 40.2483 -75.9842 240° Southwest 386 444 27,800 942 Climbing New York Center
Tue 03:22:29 PM 40.1969 -76.1081 242° Southwest 386 444 28,700 843 Climbing New York Center
Tue 03:23:30 PM 40.1594 -76.2031 243° Southwest 380 437 29,500 966 Climbing New York Center
Tue 03:24:27 PM 40.0942 -76.3472 239° Southwest 392 451 30,600 1,116 Climbing New York Center
Tue 03:26:22 PM 39.9844 -76.5878 239° Southwest 403 464 32,700 1,097 Climbing Washington Center
Tue 03:27:22 PM 39.9250 -76.7117 238° Southwest 403 464 33,800 1,200 Climbing Washington Center
Tue 03:28:22 PM 39.8592 -76.8456 237° Southwest 408 470 35,100 1,050 Climbing Washington Center
Tue 03:29:22 PM 39.7994 -76.9717 238° Southwest 408 470 35,900 450 Climbing Washington Center
Tue 03:30:22 PM 39.7417 -77.1000 240° Southwest 408 470 36,000 50 Climbing Washington Center
Tue 03:31:22 PM 39.6775 -77.2333 238° Southwest 424 488 36,000  Level Washington Center
Tue 03:32:22 PM 39.6153 -77.3694 239° Southwest 434 499 36,000  Level Washington Center
Tue 03:33:22 PM 39.5506 -77.4997 237° Southwest 434 499 36,000  Level Washington Center
Tue 03:34:22 PM 39.4881 -77.6353 239° Southwest 439 505 36,000  Level Washington Center
Tue 03:35:21 PM 39.4253 -77.7625 237° Southwest 439 505 36,000  Level Washington Center
Tue 03:36:21 PM 39.3667 -77.8950 240° Southwest 439 505 36,000  Level Washington Center
Tue 03:37:22 PM 39.3206 -78.0142 243° Southwest 434 499 36,000  Level Washington Center
Tue 03:38:22 PM 39.2656 -78.1464 242° Southwest 424 488 36,000  Level Washington Center
Tue 03:39:21 PM 39.2147 -78.2811 244° Southwest 424 488 36,000  Level Washington Center
Tue 03:40:22 PM 39.1617 -78.4158 243° Southwest 424 488 36,000  Level Washington Center
Tue 03:41:22 PM 39.1064 -78.5500 242° Southwest 424 488 36,000  Level Washington Center
Tue 03:42:22 PM 39.0572 -78.6817 244° Southwest 424 488 36,000  Level Washington Center
Tue 03:43:22 PM 39.0347 -78.8197 258° West 406 467 36,000 -250 Level Washington Center
Tue 03:44:22 PM 39.0122 -78.9550 258° West 393 452 35,500 -500 Descending Washington Center
Tue 03:45:22 PM 38.9919 -79.0850 259° West 388 447 35,000 -250 Descending Washington Center
Tue 03:46:22 PM 38.9692 -79.2200 258° West 388 447 35,000  Level Washington Center
Tue 03:47:22 PM 38.9506 -79.3500 260° West 388 447 35,000 -450 Level Washington Center
Tue 03:48:22 PM 38.9278 -79.4794 257° West 388 447 34,100 -600 Descending Washington Center
Tue 03:49:22 PM 38.9086 -79.6119 260° West 381 438 33,800 -650 Descending Washington Center
Tue 03:50:22 PM 38.8897 -79.7389 259° West 381 438 32,800 -900 Descending Washington Center
Tue 03:51:22 PM 38.8728 -79.8714 261° West 376 433 32,000 -257 Descending Washington Center
Tue 03:53:29 PM 38.8367 -80.1381 260° West 375 432 32,000  Level Indianapolis Center
Tue 03:54:31 PM 38.8206 -80.2669 261° West 367 422 32,000  Level Indianapolis Center
Tue 03:55:33 PM 38.8006 -80.4244 261° West 373 429 32,000  Level Indianapolis Center
Tue 03:56:35 PM 38.7842 -80.5550 261° West 371 427 32,000  Level Indianapolis Center
Tue 03:57:37 PM 38.7667 -80.6878 260° West 376 433 32,000 -387 Level Indianapolis Center
Tue 03:58:39 PM 38.7483 -80.8225 260° West 382 440 31,200 -1,113 Descending Indianapolis Center
Tue 03:59:41 PM 38.7314 -80.9578 261° West 385 443 29,700 -1,355 Descending Indianapolis Center
Tue 04:00:43 PM 38.7114 -81.0983 260° West 396 456 28,400 -823 Descending Indianapolis Center
Tue 04:01:45 PM 38.6925 -81.2369 260° West 396 456 28,000 -194 Descending Indianapolis Center
Tue 04:02:47 PM 38.6694 -81.4031 260° West 393 452 28,000  Level Indianapolis Center
Tue 04:03:49 PM 38.6503 -81.5392 260° West 398 458 28,000 -677 Level Indianapolis Center
Tue 04:04:51 PM 38.6300 -81.6953 261° West 403 464 26,600 -1,548 Descending Indianapolis Center
Tue 04:05:53 PM 38.6094 -81.8383 260° West 406 467 24,800 -1,258 Descending Indianapolis Center
Tue 04:06:55 PM 38.5886 -81.9833 260° West 413 475 24,000 -384 Descending Indianapolis Center
Tue 04:07:58 PM 38.5678 -82.1261 259° West 409 471 24,000  Level Indianapolis Center
Tue 04:09:00 PM 38.5467 -82.2689 259° West 411 473 24,000 -435 Level Indianapolis Center
Tue 04:10:02 PM 38.5264 -82.4117 260° West 409 471 23,100 -484 Descending Indianapolis Center
Tue 04:11:04 PM 38.5108 -82.5597 262° West 401 461 23,000 -48 Descending Indianapolis Center
Tue 04:12:06 PM 38.5247 -82.7283 276° West 408 470 23,000  Level Indianapolis Center
Tue 04:13:08 PM 38.5364 -82.8725 276° West 409 471 23,000 -242 Level Indianapolis Center
Tue 04:14:10 PM 38.5469 -83.0108 276° West 395 455 22,500 -968 Descending Indianapolis Center
Tue 04:15:12 PM 38.5572 -83.1475 276° West 389 448 21,000 -1,694 Descending Indianapolis Center
Tue 04:16:14 PM 38.5681 -83.2842 276° West 388 447 19,000 -2,081 Descending Indianapolis Center
Tue 04:17:16 PM 38.5789 -83.4431 275° West 386 444 16,700 -2,129 Descending Indianapolis Center
Tue 04:18:18 PM 38.5875 -83.5742 275° West 377 434 14,600 -1,984 Descending Indianapolis Center
Tue 04:19:20 PM 38.5972 -83.6964 276° West 354 407 12,600 -1,516 Descending Indianapolis Center
Tue 04:21:20 PM 38.6167 -83.9333 276° West 340 391 10,000 -839 Descending Cincinnati TRACON
Tue 04:22:26 PM 38.6750 -84.0403 305° West 342 394 10,000  Level Indianapolis Center
Tue 04:23:28 PM 38.7292 -84.1456 303° West 348 400 10,000  Level Indianapolis Center
Tue 04:24:30 PM 38.7814 -84.2481 303° West 342 394 10,000  Level Indianapolis Center
Tue 04:25:32 PM 38.8447 -84.3686 304° West 345 397 10,000  Level Indianapolis Center
Tue 04:26:26 PM 38.9000 -84.4500 311° West 330 380 10,000 -789 Level Cincinnati TRACON
Tue 04:27:26 PM 38.9500 -84.5333 308° West 281 323 8,500 -1,429 Descending Cincinnati TRACON
Tue 04:28:32 PM 39.0333 -84.5333 360° North 296 341 7,000 -1,762 Descending Cincinnati TRACON
Tue 04:29:32 PM 39.1167 -84.5333 360° North 276 318 4,800 -2,050 Descending Cincinnati TRACON
Tue 04:30:32 PM 39.1667 -84.5833 322° Northwest 229 264 2,900 -1,900 Descending Cincinnati TRACON

Login

Don't have an account? Register now (free) for customized features, flight alerts, and more!